aviador You're here:

KMHS Decoded Metar

MOUNT SHASTA in CA, USA
Report Time2018-04-21 03:56:00
UTC Time2018-04-21 04:04:51
Flight Rules vfr VFR
WindCalm
Visibility9999 m
Phenomena:N/A
Clouds:N/A
Expected CloudBase > 3,600 ft AGL from Temp-Dew spread
CeilingNone
Temp12°C (ISA +4)
Dew Point03°C (54% RH)
AAT10.5°C
QNH1022 hPa
Density Alt3,822 ft
Elevation3,537 ft
Report Wrong Elevation
Raw Report
METAR KMHS 210356Z AUTO 00000KT 10SM CLR 12/03 A3017 RMK AO2 SLP225
T01170028=

Extra information for KMHS:More info

Metar Taf Metar & Taf Last 4 Metars F.Rules Stats Wind Profile Meteogram Temp Stats Airport Information Weather charts Add Link Nearby VenuesMetar ALERT Operation Metar Decoded Social comments

AIRNAV info for KMHS